createdAt,value
2023-05-21T00:02:21.718Z,2.40
2023-05-21T00:04:48.514Z,2.47
2023-05-21T00:07:15.524Z,2.60
2023-05-21T00:09:42.363Z,2.17
2023-05-21T00:12:09.173Z,2.47
2023-05-21T00:14:36.110Z,2.55
2023-05-21T00:17:02.865Z,2.50
2023-05-21T00:19:29.735Z,2.78
2023-05-21T00:21:57.724Z,2.47
2023-05-21T00:24:24.531Z,2.75
2023-05-21T00:26:51.291Z,2.50
2023-05-21T00:29:18.237Z,2.70
2023-05-21T00:31:45.035Z,2.83
2023-05-21T00:34:11.866Z,2.65
2023-05-21T00:36:40.405Z,2.40
2023-05-21T00:39:07.426Z,3.30
2023-05-21T00:41:35.417Z,2.60
2023-05-21T00:44:03.118Z,2.72
2023-05-21T00:46:29.950Z,2.53
2023-05-21T00:48:58.180Z,2.85
2023-05-21T00:51:24.957Z,2.60
2023-05-21T00:53:52.977Z,2.65
2023-05-21T00:56:19.740Z,2.95
2023-05-21T00:58:48.004Z,2.78
2023-05-21T01:01:16.221Z,3.03
2023-05-21T01:03:43.241Z,3.10
2023-05-21T01:06:10.141Z,2.88
2023-05-21T01:08:37.739Z,2.78
2023-05-21T01:11:04.479Z,2.50
2023-05-21T01:13:31.519Z,3.08
2023-05-21T01:15:59.262Z,2.80
2023-05-21T01:18:26.228Z,2.88
2023-05-21T01:20:53.770Z,3.00
2023-05-21T01:23:20.696Z,3.10
2023-05-21T01:25:47.602Z,3.25
2023-05-21T01:28:14.375Z,3.15
2023-05-21T01:30:41.998Z,3.22
2023-05-21T01:33:08.859Z,3.47
2023-05-21T01:35:35.985Z,3.30
2023-05-21T01:38:02.890Z,3.30
2023-05-21T01:40:29.680Z,3.70
2023-05-21T01:42:56.492Z,3.65
2023-05-21T01:45:23.198Z,3.83
2023-05-21T01:47:50.049Z,3.65
2023-05-21T01:50:16.876Z,3.60
2023-05-21T01:52:43.651Z,3.38
2023-05-21T01:55:10.434Z,3.88
2023-05-21T01:57:37.827Z,3.45
2023-05-21T02:00:05.251Z,3.50
2023-05-21T02:02:42.320Z,3.47
2023-05-21T02:05:10.064Z,4.00
2023-05-21T02:07:37.514Z,3.55
2023-05-21T02:10:04.334Z,4.18
2023-05-21T02:12:31.092Z,4.47
2023-05-21T02:14:57.951Z,4.45
2023-05-21T02:17:24.733Z,4.18
2023-05-21T02:19:51.781Z,4.28
2023-05-21T02:22:18.500Z,4.00
2023-05-21T02:24:45.768Z,4.63
2023-05-21T02:27:13.498Z,4.53
2023-05-21T02:29:40.266Z,4.10
2023-05-21T02:32:06.996Z,4.57
2023-05-21T02:34:35.090Z,4.45
2023-05-21T02:37:01.879Z,4.90
2023-05-21T02:39:28.671Z,4.45
2023-05-21T02:41:55.695Z,4.55
2023-05-21T02:44:24.122Z,4.85
2023-05-21T02:46:51.030Z,4.70
2023-05-21T02:49:18.748Z,4.80
2023-05-21T02:51:47.330Z,4.13
2023-05-21T02:54:14.261Z,5.40
2023-05-21T02:56:41.029Z,4.70
2023-05-21T02:59:07.831Z,5.45
2023-05-21T03:01:35.743Z,5.43
2023-05-21T03:04:02.721Z,4.85
2023-05-21T03:06:29.606Z,5.22
2023-05-21T03:08:56.638Z,4.97
2023-05-21T03:11:23.358Z,5.28
2023-05-21T03:13:50.260Z,5.93
2023-05-21T03:16:17.702Z,5.10
2023-05-21T03:18:45.128Z,5.05
2023-05-21T03:21:15.515Z,6.35
2023-05-21T03:23:42.698Z,5.47
2023-05-21T03:26:09.656Z,5.95
2023-05-21T03:28:36.409Z,5.38
2023-05-21T03:31:03.470Z,5.95
2023-05-21T03:33:33.303Z,5.65
2023-05-21T03:36:02.988Z,5.50
2023-05-21T03:38:34.848Z,6.15
2023-05-21T03:41:02.727Z,5.55
2023-05-21T03:43:29.938Z,6.85
2023-05-21T03:45:56.851Z,6.63
2023-05-21T03:48:42.241Z,6.00
2023-05-21T03:51:11.434Z,6.95
2023-05-21T03:53:38.293Z,6.93
2023-05-21T03:56:05.521Z,7.00
2023-05-21T03:58:32.911Z,7.18
2023-05-21T04:01:01.864Z,7.43
2023-05-21T04:03:29.782Z,7.07
2023-05-21T04:05:57.775Z,6.60
2023-05-21T04:08:24.733Z,7.57
2023-05-21T04:10:51.531Z,7.47
2023-05-21T04:13:18.392Z,7.13
2023-05-21T04:15:46.670Z,8.40
2023-05-21T04:18:20.608Z,8.13
2023-05-21T04:20:47.406Z,8.20
2023-05-21T04:23:14.177Z,8.50
2023-05-21T04:25:41.068Z,8.32
2023-05-21T04:28:08.122Z,8.50
2023-05-21T04:30:38.444Z,7.75
2023-05-21T04:33:05.288Z,7.15
2023-05-21T04:35:35.563Z,8.43
2023-05-21T04:38:04.257Z,8.23
2023-05-21T04:40:31.715Z,8.50
2023-05-21T04:43:00.906Z,7.75
2023-05-21T04:45:28.379Z,7.95
2023-05-21T04:48:00.434Z,6.97
2023-05-21T04:50:30.955Z,7.30
2023-05-21T04:52:58.931Z,7.13
2023-05-21T04:55:27.569Z,7.03
2023-05-21T04:57:54.473Z,6.80
2023-05-21T05:00:21.313Z,6.90
2023-05-21T05:02:49.049Z,7.03
2023-05-21T05:05:15.999Z,6.90
2023-05-21T05:07:42.912Z,6.65
2023-05-21T05:10:09.734Z,6.03
2023-05-21T05:12:36.989Z,6.13
2023-05-21T05:15:04.962Z,6.20
2023-05-21T05:17:31.949Z,7.05
2023-05-21T05:19:58.755Z,5.93
2023-05-21T05:22:26.167Z,6.75
2023-05-21T05:24:52.983Z,7.38
2023-05-21T05:27:19.834Z,7.32
2023-05-21T05:29:46.548Z,8.02
2023-05-21T05:32:13.371Z,7.50
2023-05-21T05:34:40.131Z,6.85
2023-05-21T05:37:07.289Z,6.63
2023-05-21T05:39:34.493Z,6.13
2023-05-21T05:42:01.684Z,6.25
2023-05-21T05:44:28.531Z,6.00
2023-05-21T05:46:55.370Z,5.47
2023-05-21T05:49:22.067Z,5.65
2023-05-21T05:51:48.852Z,5.82
2023-05-21T05:54:15.556Z,5.70
2023-05-21T05:56:42.395Z,5.70
2023-05-21T05:59:09.171Z,5.82
2023-05-21T06:01:38.538Z,6.35
2023-05-21T06:04:06.823Z,6.13
2023-05-21T06:06:34.797Z,5.93
2023-05-21T06:09:01.677Z,5.28
2023-05-21T06:11:28.560Z,5.80
2023-05-21T06:13:55.635Z,5.40
2023-05-21T06:16:22.575Z,5.60
2023-05-21T06:18:49.423Z,5.75
2023-05-21T06:21:16.182Z,6.95
2023-05-21T06:23:42.973Z,5.53
2023-05-21T06:26:09.883Z,5.75
2023-05-21T06:28:36.994Z,4.78
2023-05-21T06:31:05.291Z,5.13
2023-05-21T06:33:33.621Z,4.80
2023-05-21T06:36:00.727Z,5.03
2023-05-21T06:38:27.562Z,5.38
2023-05-21T06:40:54.363Z,4.95
2023-05-21T06:43:41.056Z,5.95
2023-05-21T06:46:26.415Z,5.82
2023-05-21T06:48:53.328Z,5.07
2023-05-21T06:51:20.566Z,4.72
2023-05-21T06:53:48.326Z,4.53
2023-05-21T06:56:15.982Z,4.53
2023-05-21T06:58:43.659Z,5.18
2023-05-21T07:01:11.727Z,4.53
2023-05-21T07:03:38.605Z,4.75
2023-05-21T07:06:05.463Z,4.13
2023-05-21T07:08:32.245Z,5.05
2023-05-21T07:10:59.730Z,4.43
2023-05-21T07:13:26.497Z,4.60
2023-05-21T07:15:53.563Z,4.63
2023-05-21T07:18:20.934Z,4.90
2023-05-21T07:20:47.739Z,4.40
2023-05-21T07:23:16.209Z,4.40
2023-05-21T07:25:42.920Z,4.18
2023-05-21T07:28:09.714Z,4.43
2023-05-21T07:30:36.969Z,4.40
2023-05-21T07:33:09.741Z,4.13
2023-05-21T07:35:36.784Z,4.10
2023-05-21T07:38:04.493Z,3.95
2023-05-21T07:40:31.875Z,4.50
2023-05-21T07:42:58.685Z,4.30
2023-05-21T07:45:29.159Z,4.30
2023-05-21T07:47:56.574Z,3.60
2023-05-21T07:50:24.012Z,3.58
2023-05-21T07:52:50.987Z,4.20
2023-05-21T07:55:18.830Z,3.95
2023-05-21T07:57:46.413Z,3.72
2023-05-21T08:00:15.757Z,3.38
2023-05-21T08:02:42.636Z,3.90
2023-05-21T08:05:12.172Z,3.45
2023-05-21T08:07:39.220Z,3.35
2023-05-21T08:10:06.092Z,3.20
2023-05-21T08:12:33.045Z,3.58
2023-05-21T08:15:00.066Z,3.20
2023-05-21T08:17:28.577Z,3.05
2023-05-21T08:19:55.522Z,2.55
2023-05-21T08:22:22.647Z,2.63
2023-05-21T08:24:50.059Z,2.55
2023-05-21T08:27:16.929Z,2.60
2023-05-21T08:29:44.429Z,2.35
2023-05-21T08:32:11.306Z,2.67
2023-05-21T08:34:38.363Z,2.58
2023-05-21T08:37:31.607Z,2.40
2023-05-21T08:40:03.819Z,2.45
2023-05-21T08:42:37.552Z,2.15
2023-05-21T08:45:05.728Z,2.20
2023-05-21T08:47:32.588Z,1.95
2023-05-21T08:49:59.425Z,2.30
2023-05-21T08:52:26.729Z,2.42
2023-05-21T08:54:53.590Z,2.10
2023-05-21T08:57:20.623Z,2.20
2023-05-21T08:59:48.240Z,1.95
2023-05-21T09:02:22.269Z,1.90
2023-05-21T09:04:49.509Z,2.05
2023-05-21T09:07:17.047Z,1.70
2023-05-21T09:10:08.826Z,2.20
2023-05-21T09:12:36.351Z,2.00
2023-05-21T09:15:03.746Z,2.00
2023-05-21T09:17:33.617Z,1.80
2023-05-21T09:20:16.138Z,1.90
2023-05-21T09:22:49.358Z,1.70
2023-05-21T09:25:16.778Z,1.65
2023-05-21T09:27:44.077Z,1.70
2023-05-21T09:30:11.138Z,1.90
2023-05-21T09:32:38.117Z,1.77
2023-05-21T09:35:05.158Z,2.13
2023-05-21T09:37:37.675Z,2.03
2023-05-21T09:40:05.423Z,2.13
2023-05-21T09:42:32.234Z,1.80
2023-05-21T09:44:59.261Z,1.98
2023-05-21T09:47:26.114Z,2.28
2023-05-21T09:49:52.901Z,1.90
2023-05-21T09:52:19.766Z,1.95
2023-05-21T09:54:46.625Z,2.03
2023-05-21T09:57:13.324Z,1.70
2023-05-21T09:59:40.205Z,2.22
2023-05-21T10:02:07.111Z,2.15
2023-05-21T10:04:33.945Z,2.40
2023-05-21T10:07:01.007Z,1.98
2023-05-21T10:09:27.778Z,2.08
2023-05-21T10:11:54.489Z,1.95
2023-05-21T10:14:22.641Z,2.20
2023-05-21T10:16:49.578Z,2.22
2023-05-21T10:19:16.538Z,2.05
2023-05-21T10:21:43.604Z,1.70
2023-05-21T10:24:10.689Z,1.73
2023-05-21T10:26:37.467Z,1.90
2023-05-21T10:29:04.275Z,2.22
2023-05-21T10:31:31.019Z,1.90
2023-05-21T10:33:57.955Z,1.63
2023-05-21T10:36:25.786Z,1.70
2023-05-21T10:38:52.718Z,1.77
2023-05-21T10:41:19.437Z,1.63
2023-05-21T10:43:46.492Z,1.77
2023-05-21T10:46:13.378Z,1.83
2023-05-21T10:48:40.299Z,2.00
2023-05-21T10:51:08.196Z,2.08
2023-05-21T10:53:34.981Z,2.10
2023-05-21T10:56:01.728Z,2.38
2023-05-21T10:58:30.040Z,2.47
2023-05-21T11:00:57.039Z,2.47
2023-05-21T11:03:24.065Z,2.08
2023-05-21T11:05:50.874Z,2.13
2023-05-21T11:08:17.654Z,2.00
2023-05-21T11:10:47.259Z,2.33
2023-05-21T11:13:14.037Z,2.13
2023-05-21T11:15:40.955Z,2.38
2023-05-21T11:18:09.509Z,2.05
2023-05-21T11:20:36.701Z,2.40
2023-05-21T11:23:03.687Z,2.03
2023-05-21T11:25:30.738Z,2.22
2023-05-21T11:27:57.570Z,2.15
2023-05-21T11:30:24.259Z,1.98
2023-05-21T11:32:51.042Z,1.90
2023-05-21T11:35:17.848Z,1.95
2023-05-21T11:37:46.566Z,2.00
2023-05-21T11:40:13.340Z,1.90
2023-05-21T11:42:42.233Z,1.98
2023-05-21T11:45:08.921Z,2.10
2023-05-21T11:47:35.908Z,1.98
2023-05-21T11:50:02.775Z,2.78
2023-05-21T11:52:29.559Z,2.85
2023-05-21T11:54:57.313Z,3.00
2023-05-21T11:57:24.272Z,2.25
2023-05-21T11:59:53.980Z,2.72
2023-05-21T12:02:20.895Z,2.92
2023-05-21T12:04:48.609Z,2.78
2023-05-21T12:07:15.433Z,2.72
2023-05-21T12:09:42.255Z,2.80
2023-05-21T12:12:09.164Z,2.30
2023-05-21T12:14:36.009Z,2.55
2023-05-21T12:17:02.755Z,2.35
2023-05-21T12:19:29.637Z,2.22
2023-05-21T12:21:56.431Z,2.30
2023-05-21T12:24:23.177Z,2.42
2023-05-21T12:26:52.126Z,2.70
2023-05-21T12:29:18.872Z,2.22
2023-05-21T12:31:45.696Z,2.50
2023-05-21T12:34:12.516Z,2.67
2023-05-21T12:36:39.273Z,2.15
2023-05-21T12:39:05.991Z,2.03
2023-05-21T12:41:32.741Z,2.15
2023-05-21T12:43:59.434Z,2.13
2023-05-21T12:46:27.465Z,2.42
2023-05-21T12:48:55.411Z,2.50
2023-05-21T12:51:22.202Z,2.53
2023-05-21T12:53:48.916Z,2.42
2023-05-21T12:56:15.807Z,2.83
2023-05-21T12:58:42.550Z,2.55
2023-05-21T13:01:09.456Z,2.60
2023-05-21T13:03:36.228Z,2.83
2023-05-21T13:06:03.123Z,2.72
2023-05-21T13:08:29.863Z,2.55
2023-05-21T13:10:56.645Z,3.00
2023-05-21T13:13:23.412Z,2.55
2023-05-21T13:15:50.204Z,2.80
2023-05-21T13:18:17.076Z,3.00
2023-05-21T13:20:43.857Z,3.08
2023-05-21T13:23:11.786Z,2.85
2023-05-21T13:25:38.827Z,2.70
2023-05-21T13:28:08.757Z,3.00
2023-05-21T13:30:35.661Z,3.72
2023-05-21T13:33:02.642Z,3.00
2023-05-21T13:35:30.640Z,2.78
2023-05-21T13:37:57.344Z,2.67
2023-05-21T13:40:24.175Z,3.15
2023-05-21T13:42:51.006Z,3.20
2023-05-21T13:45:17.823Z,2.90
2023-05-21T13:47:44.609Z,2.60
2023-05-21T13:50:11.440Z,3.17
2023-05-21T13:52:38.240Z,3.00
2023-05-21T13:55:05.014Z,2.95
2023-05-21T13:57:31.873Z,3.05
2023-05-21T13:59:58.684Z,2.88
2023-05-21T14:02:25.683Z,3.08
2023-05-21T14:04:52.690Z,3.03
2023-05-21T14:07:19.410Z,3.28
2023-05-21T14:09:47.614Z,2.90
2023-05-21T14:12:14.322Z,2.80
2023-05-21T14:14:41.510Z,2.53
2023-05-21T14:17:08.317Z,2.47
2023-05-21T14:19:35.257Z,2.70
2023-05-21T14:22:02.132Z,2.65
2023-05-21T14:24:28.911Z,2.65
2023-05-21T14:26:55.669Z,2.50
2023-05-21T14:29:22.453Z,2.50
2023-05-21T14:31:49.419Z,2.55
2023-05-21T14:34:16.218Z,2.67
2023-05-21T14:36:42.930Z,2.50
2023-05-21T14:39:09.740Z,2.50
2023-05-21T14:41:36.449Z,2.60
2023-05-21T14:44:03.235Z,2.45
2023-05-21T14:46:30.321Z,2.42
2023-05-21T14:48:59.260Z,2.83
2023-05-21T14:51:25.999Z,2.80
2023-05-21T14:53:52.865Z,2.63
2023-05-21T14:56:22.108Z,2.42
2023-05-21T14:58:49.387Z,2.47
2023-05-21T15:01:16.233Z,2.83
2023-05-21T15:03:43.278Z,2.67
2023-05-21T15:06:10.140Z,2.67
2023-05-21T15:08:36.874Z,2.65
2023-05-21T15:11:03.585Z,2.60
2023-05-21T15:13:30.547Z,2.95
2023-05-21T15:15:57.340Z,2.70
2023-05-21T15:18:24.906Z,2.53
2023-05-21T15:20:51.679Z,2.53
2023-05-21T15:23:18.493Z,2.80
2023-05-21T15:25:45.385Z,2.95
2023-05-21T15:28:12.478Z,2.60
2023-05-21T15:30:39.362Z,2.75
2023-05-21T15:33:06.612Z,2.72
2023-05-21T15:35:33.622Z,2.50
2023-05-21T15:38:00.642Z,2.70
2023-05-21T15:40:27.496Z,2.65
2023-05-21T15:42:54.390Z,2.50
2023-05-21T15:45:21.258Z,2.60
2023-05-21T15:50:14.827Z,2.70
2023-05-21T15:52:41.612Z,2.50
2023-05-21T15:55:08.342Z,2.55
2023-05-21T15:57:35.193Z,2.60
2023-05-21T16:00:02.012Z,2.50
2023-05-21T16:02:28.990Z,2.83
2023-05-21T16:04:55.959Z,2.45
2023-05-21T16:07:22.719Z,2.35
2023-05-21T16:09:49.776Z,2.90
2023-05-21T16:12:16.575Z,2.65
2023-05-21T16:14:43.359Z,2.35
2023-05-21T16:17:10.235Z,2.80
2023-05-21T16:19:37.109Z,2.45
2023-05-21T16:22:03.953Z,2.30
2023-05-21T16:24:30.852Z,2.95
2023-05-21T16:26:57.719Z,2.92
2023-05-21T16:29:24.681Z,3.20
2023-05-21T16:31:51.450Z,2.63
2023-05-21T16:34:18.217Z,2.83
2023-05-21T16:36:44.974Z,2.60
2023-05-21T16:39:11.818Z,3.03
2023-05-21T16:41:38.571Z,2.85
2023-05-21T16:44:05.671Z,2.97
2023-05-21T16:46:32.564Z,3.10
2023-05-21T16:48:59.376Z,2.97
2023-05-21T16:51:26.174Z,2.47
2023-05-21T16:53:52.904Z,2.83
2023-05-21T16:56:19.706Z,2.67
2023-05-21T16:58:46.495Z,2.95
2023-05-21T17:01:13.316Z,2.67
2023-05-21T17:03:42.494Z,2.72
2023-05-21T17:06:10.210Z,2.97
2023-05-21T17:08:36.919Z,2.95
2023-05-21T17:11:03.688Z,2.85
2023-05-21T17:13:30.852Z,3.28
2023-05-21T17:15:57.672Z,2.63
2023-05-21T17:18:24.626Z,2.72
2023-05-21T17:20:51.349Z,2.58
2023-05-21T17:23:18.164Z,2.88
2023-05-21T17:25:45.050Z,2.65
2023-05-21T17:28:11.805Z,2.78
2023-05-21T17:30:38.667Z,2.72
2023-05-21T17:33:06.573Z,2.58
2023-05-21T17:35:33.390Z,2.40
2023-05-21T17:38:00.119Z,2.60
2023-05-21T17:40:26.970Z,2.80
2023-05-21T17:42:53.721Z,3.15
2023-05-21T17:45:20.612Z,2.78
2023-05-21T17:47:47.481Z,2.63
2023-05-21T17:50:14.376Z,2.72
2023-05-21T17:52:41.111Z,3.00
2023-05-21T17:55:08.180Z,3.38
2023-05-21T17:57:36.083Z,3.17
2023-05-21T18:00:04.168Z,2.90
2023-05-21T18:02:38.643Z,2.92
2023-05-21T18:05:05.467Z,3.10
2023-05-21T18:07:32.205Z,2.95
2023-05-21T18:09:59.013Z,2.50
2023-05-21T18:12:25.743Z,2.65
2023-05-21T18:14:52.614Z,3.33
2023-05-21T18:17:19.325Z,3.10
2023-05-21T18:19:46.169Z,2.88
2023-05-21T18:22:13.069Z,2.83
2023-05-21T18:24:39.874Z,3.08
2023-05-21T18:27:06.767Z,2.70
2023-05-21T18:29:33.676Z,2.80
2023-05-21T18:32:00.447Z,2.72
2023-05-21T18:34:27.258Z,3.28
2023-05-21T18:36:54.546Z,2.67
2023-05-21T18:39:24.783Z,2.60
2023-05-21T18:42:01.657Z,2.92
2023-05-21T18:44:38.689Z,3.13
2023-05-21T18:47:08.958Z,2.80
2023-05-21T18:49:36.277Z,2.58
2023-05-21T18:52:03.330Z,2.80
2023-05-21T18:54:30.136Z,2.72
2023-05-21T18:56:59.660Z,2.90
2023-05-21T18:59:26.602Z,2.85
2023-05-21T19:01:53.436Z,2.30
2023-05-21T19:04:20.577Z,2.72
2023-05-21T19:06:47.606Z,2.67
2023-05-21T19:09:14.516Z,2.78
2023-05-21T19:11:41.232Z,2.80
2023-05-21T19:14:08.048Z,2.60
2023-05-21T19:16:34.790Z,2.40
2023-05-21T19:19:03.111Z,2.72
2023-05-21T19:21:29.936Z,2.70
2023-05-21T19:23:56.763Z,2.80
2023-05-21T19:26:23.629Z,2.97
2023-05-21T19:28:54.606Z,3.40
2023-05-21T19:31:21.587Z,3.17
2023-05-21T19:33:48.467Z,2.65
2023-05-21T19:36:15.432Z,3.08
2023-05-21T19:38:42.126Z,3.00
2023-05-21T19:41:08.911Z,2.78
2023-05-21T19:43:35.672Z,3.65
2023-05-21T19:46:02.488Z,3.38
2023-05-21T19:48:29.260Z,2.88
2023-05-21T19:50:56.131Z,2.90
2023-05-21T19:53:22.835Z,2.88
2023-05-21T19:55:49.616Z,2.70
2023-05-21T19:58:19.198Z,3.35
2023-05-21T20:00:47.313Z,2.53
2023-05-21T20:03:15.177Z,3.00
2023-05-21T20:05:42.101Z,2.80
2023-05-21T20:08:08.843Z,2.80
2023-05-21T20:10:35.982Z,2.70
2023-05-21T20:13:02.909Z,2.55
2023-05-21T20:15:29.696Z,2.75
2023-05-21T20:17:56.451Z,2.67
2023-05-21T20:20:23.396Z,2.95
2023-05-21T20:22:50.135Z,2.78
2023-05-21T20:25:16.951Z,2.75
2023-05-21T20:27:43.709Z,2.63
2023-05-21T20:30:10.768Z,2.53
2023-05-21T20:32:37.637Z,2.80
2023-05-21T20:35:04.533Z,2.70
2023-05-21T20:37:34.437Z,2.40
2023-05-21T20:40:01.385Z,2.45
2023-05-21T20:42:28.719Z,2.85
2023-05-21T20:44:55.739Z,2.65
2023-05-21T20:47:23.499Z,2.80
2023-05-21T20:49:53.764Z,2.55
2023-05-21T20:52:20.726Z,2.88
2023-05-21T20:54:48.950Z,2.85
2023-05-21T20:57:16.078Z,2.50
2023-05-21T20:59:43.391Z,2.60
2023-05-21T21:02:10.225Z,2.85
2023-05-21T21:04:37.989Z,2.53
2023-05-21T21:07:07.985Z,2.33
2023-05-21T21:09:34.756Z,1.92
2023-05-21T21:12:11.375Z,2.30
2023-05-21T21:14:48.265Z,1.90
2023-05-21T21:17:15.063Z,2.28
2023-05-21T21:19:41.805Z,2.20
2023-05-21T21:22:08.517Z,2.60
2023-05-21T21:24:35.438Z,2.33
2023-05-21T21:27:02.216Z,2.13
2023-05-21T21:29:29.084Z,2.40
2023-05-21T21:31:55.863Z,2.45
2023-05-21T21:34:24.293Z,2.33
2023-05-21T21:36:51.336Z,3.22
2023-05-21T21:39:18.158Z,2.85
2023-05-21T21:41:44.866Z,2.38
2023-05-21T21:44:11.679Z,2.13
2023-05-21T21:46:39.156Z,2.50
2023-05-21T21:49:05.980Z,2.50
2023-05-21T21:51:32.965Z,2.25
2023-05-21T21:53:59.726Z,2.00
2023-05-21T21:56:26.695Z,2.25
2023-05-21T21:58:53.425Z,2.03
2023-05-21T22:01:20.297Z,2.00
2023-05-21T22:03:47.120Z,2.42
2023-05-21T22:06:13.865Z,2.35
2023-05-21T22:08:40.892Z,2.22
2023-05-21T22:11:07.794Z,2.35
2023-05-21T22:13:34.922Z,2.75
2023-05-21T22:16:02.120Z,2.38
2023-05-21T22:18:40.357Z,2.42
2023-05-21T22:21:09.575Z,2.00
2023-05-21T22:23:36.852Z,2.58
2023-05-21T22:26:03.840Z,2.05
2023-05-21T22:28:30.584Z,2.28
2023-05-21T22:30:57.368Z,2.50
2023-05-21T22:33:24.481Z,2.00
2023-05-21T22:35:51.309Z,2.63
2023-05-21T22:38:18.080Z,2.65
2023-05-21T22:40:44.973Z,2.30
2023-05-21T22:43:11.892Z,2.35
2023-05-21T22:45:38.826Z,2.33
2023-05-21T22:48:08.619Z,2.50
2023-05-21T22:50:36.339Z,2.40
2023-05-21T22:53:03.328Z,2.53
2023-05-21T22:55:30.112Z,2.30
2023-05-21T22:57:56.816Z,2.50
2023-05-21T23:00:23.651Z,2.70
2023-05-21T23:02:53.854Z,2.60
2023-05-21T23:05:21.250Z,2.60
2023-05-21T23:07:48.000Z,3.13
2023-05-21T23:10:14.703Z,2.92
2023-05-21T23:12:41.455Z,2.50
2023-05-21T23:15:10.035Z,3.10
2023-05-21T23:17:37.027Z,3.15
2023-05-21T23:20:03.791Z,2.63
2023-05-21T23:22:30.556Z,2.95
2023-05-21T23:24:57.329Z,2.95
2023-05-21T23:27:24.049Z,2.88
2023-05-21T23:29:50.821Z,3.00
2023-05-21T23:32:17.945Z,2.90
2023-05-21T23:34:44.784Z,3.15
2023-05-21T23:37:11.640Z,3.25
2023-05-21T23:39:38.381Z,3.30
2023-05-21T23:42:05.104Z,2.80
2023-05-21T23:44:31.906Z,3.95
2023-05-21T23:46:58.614Z,3.08
2023-05-21T23:49:25.380Z,3.13
2023-05-21T23:51:52.350Z,3.53
2023-05-21T23:54:19.206Z,3.22
2023-05-21T23:56:46.522Z,3.10
2023-05-21T23:59:13.718Z,3.03
